Greenville, New York
Current Conditions -  °F | °C
As of 4:51 PM on Tuesday 25 Nov 2014 (Local Time) from KALB Reporting Station
Broken Clouds Broken Clouds  
Wind Chill: 45°   Ceiling: 26000
Heat Index: 47°   Visibility: 10mi
Dew Point: 25°   Wind: 5mph
Humidity: 42%   Direction: 220°SW
Pressure: 29.98"   Gusts: NA
Location:  42.39°N, 74°W
Report Text: KALB 252151Z 22004KT 10SM FEW050 FEW200 BKN260 08/M04 A2998 RMK AO2 SLP154 BKN V SCT T00831039
Loading
Personal Weather Stations






























Interactive Weather Map New forecast layout! Learn more

10-Day Weather Forecast

Advertisements
Track Severe Weather on mobile